Time;durP1;ratioP1;P1;durP2;ratioP2;P2;SDS_P1;SDS_P2;PMS_P1;PMS_P2;Temp;Humidity;BMP_temperature;BMP_pressure;BME280_temperature;BME280_humidity;BME280_pressure;Samples;Min_cycle;Max_cycle;Signal;HPM_P1;HPM_P2
2021/12/12 00:02:26;;;;;;;59.53;29.05;;;;;;;-2.81;86.85;101275.98;1756572;81;21081;-72
2021/12/12 00:04:47;;;;;;;65.30;30.68;;;;;;;-2.80;86.84;101275.08;1753877;81;21055;-72
2021/12/12 00:07:20;;;;;;;67.17;31.23;;;;;;;-2.82;86.84;101287.81;1756643;81;21050;-72
2021/12/12 00:09:46;;;;;;;67.97;29.42;;;;;;;-2.82;86.86;101287.36;1756518;81;21555;-72
2021/12/12 00:12:16;;;;;;;63.98;26.80;;;;;;;-2.84;86.86;101286.55;1756458;81;21818;-72
2021/12/12 00:14:43;;;;;;;61.53;27.73;;;;;;;-2.88;86.86;101294.11;1756179;81;21004;-73
2021/12/12 00:17:09;;;;;;;71.12;34.27;;;;;;;-2.89;86.87;101295.50;1756656;81;20994;-72
2021/12/12 00:19:35;;;;;;;67.50;30.68;;;;;;;-2.91;86.87;101294.23;1756647;81;28655;-72
2021/12/12 00:22:05;;;;;;;65.45;30.65;;;;;;;-2.90;86.87;101297.25;1726966;81;21042;-72
2021/12/12 00:24:31;;;;;;;63.85;29.57;;;;;;;-2.88;86.89;101298.02;1757747;80;21077;-72
2021/12/12 00:26:57;;;;;;;68.85;28.42;;;;;;;-2.87;86.90;101306.70;1771476;80;26498;-72
2021/12/12 00:29:23;;;;;;;66.22;29.55;;;;;;;-2.89;86.87;101304.18;1779038;80;21006;-72
2021/12/12 00:31:52;;;;;;;65.17;28.45;;;;;;;-2.88;86.91;101306.30;1778910;80;21483;-72
2021/12/12 00:34:18;;;;;;;63.17;30.43;;;;;;;-2.89;86.92;101314.62;1779068;80;21057;-73
2021/12/12 00:36:44;;;;;;;64.40;29.12;;;;;;;-2.90;86.91;101315.52;1779708;80;21976;-72
2021/12/12 00:39:15;;;;;;;65.25;28.60;;;;;;;-2.93;86.90;101318.26;1781508;80;26563;-72
2021/12/12 00:41:46;;;;;;;67.87;29.57;;;;;;;-2.95;86.92;101323.97;1781398;80;20995;-72
2021/12/12 00:44:12;;;;;;;65.37;30.00;;;;;;;-2.95;86.92;101329.19;1764377;80;21004;-72
2021/12/12 00:46:38;;;;;;;69.60;31.57;;;;;;;-2.92;86.91;101330.37;1763930;80;21036;-72
2021/12/12 00:49:04;;;;;;;65.78;30.52;;;;;;;-2.89;86.93;101333.33;1763879;81;21472;-72
2021/12/12 00:51:33;;;;;;;71.30;32.30;;;;;;;-2.87;86.94;101336.27;1763914;80;26447;-72
2021/12/12 00:53:59;;;;;;;82.35;34.55;;;;;;;-2.87;86.95;101341.48;1762641;80;21077;-72
2021/12/12 00:56:25;;;;;;;95.20;43.80;;;;;;;-2.86;86.97;101346.25;1760323;81;28120;-72
2021/12/12 00:58:51;;;;;;;91.50;37.42;;;;;;;-2.85;86.98;101347.48;1760574;81;20983;-72
2021/12/12 01:01:25;;;;;;;113.08;52.45;;;;;;;-2.85;86.97;101354.00;1761955;80;21967;-72
2021/12/12 01:03:56;;;;;;;75.22;34.92;;;;;;;-2.83;86.98;101350.04;1759991;80;21089;-73
2021/12/12 01:06:22;;;;;;;71.40;33.40;;;;;;;-2.84;86.98;101343.97;1765408;80;21018;-72
2021/12/12 01:08:50;;;;;;;76.12;35.75;;;;;;;-2.86;86.98;101341.03;1775744;80;21069;-72
2021/12/12 01:11:22;;;;;;;63.15;28.77;;;;;;;-2.88;86.98;101341.08;1795375;79;21054;-72
2021/12/12 01:13:48;;;;;;;56.88;25.30;;;;;;;-2.92;86.98;101342.11;1793316;79;21050;-72
2021/12/12 01:16:24;;;;;;;63.25;26.62;;;;;;;-2.98;87.01;101336.29;1795289;80;20998;-72
2021/12/12 01:18:56;;;;;;;65.65;27.95;;;;;;;-3.02;87.01;101334.26;1795422;79;21003;-72
2021/12/12 01:21:27;;;;;;;66.17;29.82;;;;;;;-3.04;87.01;101332.19;1795117;79;20986;-72
2021/12/12 01:24:01;;;;;;;64.30;28.75;;;;;;;-3.02;87.01;101323.83;1795088;80;20987;-73
2021/12/12 01:26:28;;;;;;;69.47;31.40;;;;;;;-3.00;87.05;101324.63;1795070;79;21227;-73
2021/12/12 01:28:55;;;;;;;71.15;31.00;;;;;;;-2.99;87.03;101322.39;1795223;78;21034;-72
2021/12/12 01:31:28;;;;;;;75.67;31.68;;;;;;;-2.98;87.03;101321.49;1784884;79;21054;-72
2021/12/12 01:33:59;;;;;;;72.32;32.17;;;;;;;-2.98;87.04;101319.34;1763630;80;21466;-72
2021/12/12 01:36:26;;;;;;;70.37;31.02;;;;;;;-2.98;87.06;101314.97;1763604;80;26411;-72
2021/12/12 01:38:56;;;;;;;68.60;31.65;;;;;;;-2.94;87.08;101313.94;1766245;80;21509;-72
2021/12/12 01:41:27;;;;;;;80.83;35.35;;;;;;;-2.96;87.07;101305.34;1741951;81;21003;-73
2021/12/12 01:43:57;;;;;;;70.85;32.20;;;;;;;-2.93;87.08;101304.36;1795822;79;20986;-72
2021/12/12 01:46:29;;;;;;;75.47;32.78;;;;;;;-2.90;87.09;101298.55;1795836;79;21030;-72
2021/12/12 01:49:06;;;;;;;72.35;33.65;;;;;;;-2.90;87.10;101299.86;1796159;79;20983;-72
2021/12/12 01:51:32;;;;;;;79.15;32.35;;;;;;;-2.86;87.13;101298.83;1794279;79;21226;-72
2021/12/12 01:54:01;;;;;;;76.55;31.60;;;;;;;-2.85;87.11;101295.28;1796027;79;27016;-72
2021/12/12 01:56:42;;;;;;;68.42;31.27;;;;;;;-2.82;87.13;101288.66;1781386;79;20986;-72
2021/12/12 01:59:06;;;;;;;70.57;29.40;;;;;;;-2.84;87.13;101290.47;1772709;79;21526;-72
2021/12/12 02:01:49;;;;;;;73.87;32.63;;;;;;;-2.91;87.12;101288.17;1764945;79;21036;-73
2021/12/12 02:04:21;;;;;;;78.87;34.63;;;;;;;-2.91;87.13;101291.63;1764565;81;21007;-73
2021/12/12 02:06:48;;;;;;;72.25;30.55;;;;;;;-2.91;87.12;101293.39;1740897;81;20993;-72
2021/12/12 02:09:14;;;;;;;72.40;32.85;;;;;;;-2.90;87.15;101302.47;1766753;79;21013;-72
2021/12/12 02:11:42;;;;;;;67.27;29.27;;;;;;;-2.92;87.17;101304.28;1764612;81;28305;-73
2021/12/12 02:14:12;;;;;;;69.35;28.55;;;;;;;-2.93;87.18;101314.80;1764159;81;20958;-72
2021/12/12 02:16:42;;;;;;;60.90;26.85;;;;;;;-2.95;87.17;101327.89;1764705;81;21096;-72
2021/12/12 02:19:08;;;;;;;74.17;29.40;;;;;;;-2.97;87.19;101327.11;1764528;81;20974;-72
2021/12/12 02:21:54;;;;;;;64.53;30.43;;;;;;;-2.99;87.19;101326.30;1764226;81;20981;-72
2021/12/12 02:35:23;;;;;;;55.85;23.87;;;;;;;-3.01;87.19;101322.92;1795541;79;20958;-72
2021/12/12 02:37:43;;;;;;;52.80;23.87;;;;;;;-3.01;87.19;101319.02;1769767;79;21014;-72
2021/12/12 02:40:15;;;;;;;57.90;26.70;;;;;;;-2.96;87.18;101318.84;1737958;82;21021;-73
2021/12/12 02:42:41;;;;;;;60.12;26.10;;;;;;;-2.96;87.19;101317.08;1740552;81;21247;-72
2021/12/12 02:45:09;;;;;;;57.00;25.35;;;;;;;-2.95;87.19;101317.45;1708185;84;21490;-72
2021/12/12 02:47:35;;;;;;;58.98;27.40;;;;;;;-2.97;87.19;101317.12;1789807;80;21113;-72
2021/12/12 02:50:16;;;;;;;54.70;25.02;;;;;;;-2.96;87.20;101325.36;1792263;80;21618;-72
2021/12/12 02:52:47;;;;;;;60.45;24.57;;;;;;;-2.97;87.19;101332.78;1792421;79;20995;-72
2021/12/12 02:55:29;;;;;;;56.75;24.80;;;;;;;-2.97;87.20;101339.30;1789316;79;21127;-72
2021/12/12 02:57:57;;;;;;;60.65;24.23;;;;;;;-2.96;87.24;101341.02;1792477;79;20995;-72
2021/12/12 03:00:26;;;;;;;55.50;25.52;;;;;;;-2.96;87.23;101337.95;1792488;80;21435;-72
2021/12/12 03:02:57;;;;;;;57.98;25.45;;;;;;;-2.95;87.25;101334.41;1792829;79;21011;-72
2021/12/12 03:05:21;;;;;;;55.00;24.77;;;;;;;-2.92;87.24;101339.50;1792009;79;20986;-72
2021/12/12 03:07:47;;;;;;;53.92;24.27;;;;;;;-2.89;87.23;101332.88;1792770;78;21015;-72
2021/12/12 03:10:17;;;;;;;54.60;25.23;;;;;;;-2.88;87.25;101336.31;1771190;80;26704;-72
2021/12/12 03:12:43;;;;;;;53.95;25.43;;;;;;;-2.86;87.26;101335.36;1761248;80;21030;-72
2021/12/12 03:15:17;;;;;;;60.12;24.82;;;;;;;-2.82;87.29;101338.25;1761490;80;28736;-72
2021/12/12 03:17:44;;;;;;;59.58;25.88;;;;;;;-2.77;87.26;101338.89;1761358;80;21063;-72
2021/12/12 03:20:24;;;;;;;61.30;26.33;;;;;;;-2.73;87.27;101329.17;1761323;80;21626;-72
2021/12/12 03:22:57;;;;;;;60.80;26.02;;;;;;;-2.73;87.26;101328.72;1761207;81;20994;-73
2021/12/12 03:25:23;;;;;;;63.52;27.02;;;;;;;-2.71;87.28;101336.50;1787296;80;21015;-73
2021/12/12 03:27:49;;;;;;;56.58;26.30;;;;;;;-2.72;87.26;101334.34;1792295;80;21471;-73
2021/12/12 03:30:16;;;;;;;58.42;24.60;;;;;;;-2.74;87.26;101337.45;1792663;80;21041;-73
2021/12/12 03:32:42;;;;;;;55.12;24.67;;;;;;;-2.73;87.27;101337.86;1792750;79;21126;-73
2021/12/12 03:35:09;;;;;;;54.60;23.95;;;;;;;-2.73;87.31;101345.69;1792420;80;26700;-73
2021/12/12 03:37:36;;;;;;;56.20;26.25;;;;;;;-2.74;87.28;101353.11;1791782;78;21464;-73
2021/12/12 03:40:10;;;;;;;58.00;25.92;;;;;;;-2.73;87.29;101349.60;1779180;80;21027;-72
2021/12/12 03:42:36;;;;;;;58.02;24.52;;;;;;;-2.73;87.32;101363.95;1753865;81;21547;-72
2021/12/12 03:45:03;;;;;;;63.23;25.30;;;;;;;-2.71;87.31;101355.59;1758220;81;21082;-72
2021/12/12 03:47:36;;;;;;;59.42;24.98;;;;;;;-2.66;87.29;101356.27;1758341;81;21078;-72
2021/12/12 03:50:08;;;;;;;59.10;25.10;;;;;;;-2.66;87.29;101361.49;1758477;81;21475;-72
2021/12/12 03:52:34;;;;;;;65.45;26.68;;;;;;;-2.65;87.30;101368.42;1758427;81;21007;-72
2021/12/12 03:55:01;;;;;;;63.68;26.07;;;;;;;-2.62;87.30;101365.68;1758676;80;26776;-72
2021/12/12 03:57:28;;;;;;;67.10;26.90;;;;;;;-2.61;87.27;101364.78;1757513;81;21125;-72
2021/12/12 03:59:54;;;;;;;63.80;26.48;;;;;;;-2.59;87.29;101368.16;1758510;81;20998;-73
2021/12/12 04:02:20;;;;;;;64.22;27.48;;;;;;;-2.57;87.31;101365.02;1758416;81;26289;-73
2021/12/12 04:04:46;;;;;;;64.53;27.95;;;;;;;-2.58;87.29;101360.73;1758423;81;21062;-72
2021/12/12 04:07:24;;;;;;;64.62;26.27;;;;;;;-2.58;87.31;101364.65;1758250;81;21010;-73
2021/12/12 04:09:51;;;;;;;62.45;26.35;;;;;;;-2.54;87.31;101377.98;1771830;80;21795;-73
2021/12/12 04:12:18;;;;;;;66.35;27.10;;;;;;;-2.53;87.31;101369.66;1789574;79;21456;-73
2021/12/12 04:14:45;;;;;;;65.35;27.02;;;;;;;-2.49;87.31;101371.23;1789250;79;21566;-72
2021/12/12 04:17:14;;;;;;;68.10;28.27;;;;;;;-2.47;87.31;101365.96;1789737;79;22084;-72
2021/12/12 04:19:45;;;;;;;74.67;27.95;;;;;;;-2.47;87.31;101362.90;1789749;80;21003;-72
2021/12/12 04:22:11;;;;;;;64.67;26.70;;;;;;;-2.43;87.32;101363.63;1789356;80;21082;-73
2021/12/12 04:24:40;;;;;;;62.67;26.90;;;;;;;-2.41;87.32;101361.78;1761935;79;21499;-72
2021/12/12 04:27:06;;;;;;;64.62;27.20;;;;;;;-2.41;87.34;101360.48;1731873;80;21043;-73
2021/12/12 04:29:36;;;;;;;81.78;30.00;;;;;;;-2.40;87.32;101360.42;1758527;81;21519;-72
2021/12/12 04:32:10;;;;;;;74.62;27.70;;;;;;;-2.41;87.32;101356.56;1757266;80;21002;-73
2021/12/12 04:34:40;;;;;;;78.15;30.55;;;;;;;-2.43;87.31;101353.17;1758445;81;21110;-73
2021/12/12 04:37:06;;;;;;;79.70;30.30;;;;;;;-2.42;87.32;101358.31;1757937;81;21015;-73
2021/12/12 04:39:37;;;;;;;66.70;26.90;;;;;;;-2.45;87.32;101362.81;1756683;80;21503;-72
2021/12/12 04:42:11;;;;;;;64.95;27.25;;;;;;;-2.47;87.30;101358.13;1771667;79;21070;-72
2021/12/12 04:44:38;;;;;;;65.03;27.93;;;;;;;-2.51;87.29;101365.24;1798250;79;21002;-73
2021/12/12 04:50:22;;;;;;;76.47;28.23;;;;;;;-2.57;87.29;101367.62;1798278;79;21030;-73
2021/12/12 04:53:00;;;;;;;78.22;28.47;;;;;;;-2.59;87.29;101365.55;1718881;83;21030;-73
2021/12/12 04:55:31;;;;;;;76.12;29.65;;;;;;;-2.63;87.29;101369.65;1798427;79;21050;-72
2021/12/12 04:58:08;;;;;;;75.45;29.42;;;;;;;-2.65;87.29;101364.51;1767190;79;20990;-72
2021/12/12 05:00:42;;;;;;;83.55;31.93;;;;;;;-2.67;87.29;101359.78;1766413;80;21165;-73
2021/12/12 05:03:13;;;;;;;70.75;28.42;;;;;;;-2.68;87.29;101360.72;1766067;80;21050;-72
2021/12/12 05:06:06;;;;;;;64.25;27.82;;;;;;;-2.70;87.30;101369.05;1759146;80;21022;-73
2021/12/12 05:08:36;;;;;;;68.75;27.17;;;;;;;-2.73;87.29;101370.48;1741628;82;21050;-73
2021/12/12 05:11:07;;;;;;;69.65;28.17;;;;;;;-2.73;87.29;101377.01;1750844;81;21081;-73
2021/12/12 05:13:38;;;;;;;67.35;27.20;;;;;;;-2.76;87.31;101369.31;1772737;81;21769;-73
2021/12/12 05:16:18;;;;;;;74.62;29.57;;;;;;;-2.74;87.31;101368.78;1787264;79;21043;-72
2021/12/12 05:18:50;;;;;;;85.57;31.30;;;;;;;-2.76;87.31;101369.31;1749684;80;21483;-73
2021/12/12 05:21:19;;;;;;;88.52;34.03;;;;;;;-2.88;87.28;101348.91;1756694;81;21011;-73
2021/12/12 05:23:48;;;;;;;89.28;34.75;;;;;;;-2.80;87.32;101382.08;1757036;80;21058;-72
2021/12/12 05:26:19;;;;;;;93.17;34.48;;;;;;;-2.84;87.33;101385.72;1756619;81;21726;-72
2021/12/12 05:29:01;;;;;;;82.88;32.42;;;;;;;-2.85;87.32;101384.02;1756740;81;21579;-73
2021/12/12 05:31:27;;;;;;;82.95;32.90;;;;;;;-2.87;87.34;101383.23;1756603;81;21618;-73
2021/12/12 05:33:53;;;;;;;72.78;31.15;;;;;;;-2.91;87.34;101389.48;1756778;81;21011;-73
2021/12/12 05:36:19;;;;;;;74.12;29.50;;;;;;;-2.91;87.34;101393.84;1756362;81;21538;-73
2021/12/12 05:38:45;;;;;;;68.07;27.93;;;;;;;-2.93;87.35;101394.38;1757436;80;21161;-73
2021/12/12 05:41:11;;;;;;;75.90;29.50;;;;;;;-3.02;87.34;101389.91;1758279;81;21438;-72
2021/12/12 05:43:37;;;;;;;69.27;27.13;;;;;;;-3.06;87.33;101387.46;1758397;81;26400;-72
2021/12/12 05:46:04;;;;;;;70.52;27.50;;;;;;;-3.12;87.32;101387.70;1758479;81;28207;-72
2021/12/12 05:48:30;;;;;;;77.05;30.32;;;;;;;-3.16;87.33;101392.19;1759029;80;21101;-72
2021/12/12 05:50:56;;;;;;;73.35;28.20;;;;;;;-3.19;87.34;101394.92;1789448;79;21430;-72
2021/12/12 05:53:22;;;;;;;73.07;29.63;;;;;;;-3.22;87.32;101392.44;1789503;79;26636;-72
2021/12/12 05:55:48;;;;;;;87.35;33.00;;;;;;;-3.21;87.33;101391.98;1789603;79;25727;-73
2021/12/12 05:58:18;;;;;;;106.12;38.05;;;;;;;-3.25;87.35;101393.86;1789459;79;20995;-72
2021/12/12 06:00:55;;;;;;;116.40;39.42;;;;;;;-3.29;87.33;101391.42;1789855;79;21002;-72
2021/12/12 06:03:25;;;;;;;108.22;39.15;;;;;;;-3.31;87.35;101387.58;1787520;79;21884;-72
2021/12/12 06:05:52;;;;;;;98.58;36.90;;;;;;;-3.35;87.35;101389.05;1758290;81;21457;-72
2021/12/12 06:08:20;;;;;;;83.12;32.42;;;;;;;-3.38;87.33;101395.23;1774065;79;21019;-72
2021/12/12 06:10:46;;;;;;;85.85;33.08;;;;;;;-3.40;87.30;101402.70;1789462;79;21531;-72
2021/12/12 06:13:15;;;;;;;79.32;31.62;;;;;;;-3.42;87.31;101399.31;1779621;80;26500;-72
2021/12/12 06:15:42;;;;;;;82.75;31.33;;;;;;;-3.44;87.32;101408.93;1754862;80;21508;-73
2021/12/12 06:18:08;;;;;;;77.32;30.43;;;;;;;-3.44;87.30;101413.70;1774316;80;21042;-72
2021/12/12 06:20:34;;;;;;;67.20;29.20;;;;;;;-3.45;87.28;101417.68;1771733;80;25974;-72
2021/12/12 06:23:00;;;;;;;76.60;29.75;;;;;;;-3.48;87.30;101426.44;1772303;79;28169;-72
2021/12/12 06:25:26;;;;;;;71.82;29.30;;;;;;;-3.52;87.30;101416.20;1768766;80;26569;-72
2021/12/12 06:27:52;;;;;;;74.25;29.35;;;;;;;-3.58;87.28;101423.33;1758432;81;21124;-72
2021/12/12 06:30:21;;;;;;;76.20;30.02;;;;;;;-3.59;87.30;101429.44;1782716;80;21062;-72
2021/12/12 06:32:48;;;;;;;73.85;32.38;;;;;;;-3.63;87.29;101435.69;1760995;79;21030;-72
2021/12/12 06:35:14;;;;;;;81.37;33.42;;;;;;;-3.62;87.29;101445.19;1758441;81;21054;-72
2021/12/12 06:37:42;;;;;;;71.33;31.68;;;;;;;-3.65;87.31;101442.70;1757771;81;21081;-72
2021/12/12 06:40:09;;;;;;;81.15;33.33;;;;;;;-3.68;87.30;101445.41;1775575;80;21164;-72
2021/12/12 06:42:35;;;;;;;80.28;34.00;;;;;;;-3.71;87.32;101444.67;1789337;80;21058;-72
2021/12/12 06:45:01;;;;;;;66.15;30.30;;;;;;;-3.75;87.31;101451.75;1789246;79;26407;-72
2021/12/12 06:47:27;;;;;;;66.17;30.45;;;;;;;-3.80;87.30;101448.44;1788853;80;21030;-71
2021/12/12 06:49:53;;;;;;;71.10;30.72;;;;;;;-3.82;87.30;101449.41;1789601;80;26461;-72
2021/12/12 06:52:19;;;;;;;69.87;31.95;;;;;;;-3.85;87.30;101447.77;1789639;79;21657;-72
2021/12/12 06:54:46;;;;;;;73.40;31.20;;;;;;;-3.85;87.30;101445.16;1768589;79;21539;-72
2021/12/12 06:57:14;;;;;;;69.67;30.08;;;;;;;-3.90;87.28;101452.27;1758541;80;21042;-72
2021/12/12 06:59:42;;;;;;;65.83;28.77;;;;;;;-3.92;87.29;101442.81;1758583;81;21476;-72
2021/12/12 07:02:08;;;;;;;68.55;30.60;;;;;;;-3.92;87.29;101444.97;1758451;81;20974;-72
2021/12/12 07:04:36;;;;;;;65.00;29.50;;;;;;;-3.90;87.28;101445.76;1782100;80;21625;-72
2021/12/12 07:07:04;;;;;;;58.68;28.52;;;;;;;-3.87;87.27;101450.86;1787377;79;21519;-72
2021/12/12 07:09:31;;;;;;;58.50;26.40;;;;;;;-3.79;87.26;101448.84;1789621;79;21030;-72
2021/12/12 07:12:00;;;;;;;56.05;26.82;;;;;;;-3.71;87.26;101446.83;1789592;79;20999;-71
2021/12/12 07:14:26;;;;;;;53.10;27.25;;;;;;;-3.62;87.25;101454.77;1790058;80;21798;-71
2021/12/12 07:16:54;;;;;;;55.88;26.40;;;;;;;-3.52;87.25;101452.70;1760490;80;21703;-71
2021/12/12 07:19:20;;;;;;;64.45;29.10;;;;;;;-3.45;87.23;101451.57;1741166;81;21042;-72
2021/12/12 07:21:46;;;;;;;106.55;52.98;;;;;;;-3.41;87.23;101450.56;1706580;81;25854;-72
2021/12/12 07:24:12;;;;;;;60.28;30.23;;;;;;;-3.35;87.23;101447.72;1758511;81;28687;-72
2021/12/12 07:26:38;;;;;;;52.75;28.42;;;;;;;-3.31;87.24;101444.95;1758651;81;21057;-72
2021/12/12 07:29:04;;;;;;;66.07;35.85;;;;;;;-3.26;87.25;101453.44;1758700;80;21692;-72
2021/12/12 07:31:33;;;;;;;57.78;30.57;;;;;;;-3.18;87.23;101458.38;1785554;80;21006;-71
2021/12/12 07:34:00;;;;;;;53.95;28.55;;;;;;;-3.09;87.25;101457.57;1789593;78;21334;-72
2021/12/12 07:36:27;;;;;;;92.53;46.58;;;;;;;-3.01;87.26;101461.20;1788948;80;21007;-72
2021/12/12 07:38:58;;;;;;;61.55;28.12;;;;;;;-2.89;87.25;101462.50;1771648;80;20999;-72
2021/12/12 07:41:27;;;;;;;54.03;27.55;;;;;;;-2.84;87.24;101460.09;1787566;79;21815;-72
2021/12/12 07:43:54;;;;;;;67.78;31.85;;;;;;;-2.79;87.26;101462.09;1778187;80;21003;-72
2021/12/12 07:46:20;;;;;;;88.45;40.40;;;;;;;-2.72;87.27;101466.16;1756303;81;20982;-72
2021/12/12 07:48:48;;;;;;;118.20;51.63;;;;;;;-2.66;87.29;101465.91;1783184;80;21495;-72
2021/12/12 07:51:14;;;;;;;73.75;36.15;;;;;;;-2.62;87.29;101468.80;1788060;80;21050;-72
2021/12/12 07:53:40;;;;;;;131.60;51.35;;;;;;;-2.58;87.28;101469.08;1787872;79;21464;-72
2021/12/12 07:56:06;;;;;;;74.53;32.10;;;;;;;-2.49;87.32;101470.91;1788053;80;26663;-72
2021/12/12 07:58:32;;;;;;;104.58;39.60;;;;;;;-2.39;87.33;101481.41;1787927;80;20987;-71
2021/12/12 08:01:00;;;;;;;58.38;26.97;;;;;;;-2.30;87.35;101488.87;1788059;80;28744;-72
2021/12/12 08:03:29;;;;;;;61.68;29.12;;;;;;;-2.20;87.38;101492.80;1763162;79;21571;-72
2021/12/12 08:05:56;;;;;;;59.05;28.23;;;;;;;-2.08;87.38;101494.93;1758881;80;21171;-71
2021/12/12 08:08:23;;;;;;;54.13;28.47;;;;;;;-1.95;87.39;101500.48;1756674;81;21054;-71
2021/12/12 08:10:49;;;;;;;60.98;34.40;;;;;;;-1.87;87.38;101499.72;1756825;81;20983;-71
2021/12/12 08:13:15;;;;;;;59.50;37.33;;;;;;;-1.80;87.42;101500.71;1756865;81;21034;-71
2021/12/12 08:15:41;;;;;;;51.55;29.45;;;;;;;-1.73;87.42;101504.77;1756788;81;21082;-71
2021/12/12 08:18:09;;;;;;;49.30;27.52;;;;;;;-1.69;87.43;101497.64;1757105;81;21609;-72
2021/12/12 08:20:35;;;;;;;56.15;30.15;;;;;;;-1.66;87.44;101500.98;1779665;80;20968;-72
2021/12/12 08:23:01;;;;;;;52.75;30.95;;;;;;;-1.61;87.43;101505.53;1788178;80;25864;-72
2021/12/12 08:25:27;;;;;;;56.48;30.62;;;;;;;-1.56;87.42;101507.51;1787552;80;20852;-72
2021/12/12 08:27:54;;;;;;;49.50;28.65;;;;;;;-1.53;87.40;101511.75;1787868;80;21073;-72
2021/12/12 08:30:20;;;;;;;52.88;32.23;;;;;;;-1.54;87.41;101516.13;1780537;79;22143;-72
2021/12/12 08:32:48;;;;;;;56.30;37.85;;;;;;;-1.55;87.42;101519.65;1766478;80;21720;-72
2021/12/12 08:35:16;;;;;;;64.97;37.53;;;;;;;-1.54;87.40;101523.97;1751381;81;21490;-72
2021/12/12 08:37:42;;;;;;;49.60;30.52;;;;;;;-1.50;87.42;101520.77;1780764;80;21506;-71
2021/12/12 08:40:14;;;;;;;44.13;25.70;;;;;;;-1.44;87.42;101527.03;1782019;78;21013;-71
2021/12/12 08:42:40;;;;;;;46.92;26.17;;;;;;;-1.38;87.39;101523.32;1768760;81;21187;-72
2021/12/12 08:45:09;;;;;;;39.03;23.00;;;;;;;-1.36;87.39;101525.41;1793661;80;21033;-72
2021/12/12 08:47:35;;;;;;;42.08;22.85;;;;;;;-1.34;87.37;101527.51;1793939;79;21455;-71
2021/12/12 08:50:02;;;;;;;41.33;23.05;;;;;;;-1.32;87.37;101523.05;1793863;79;20978;-72
2021/12/12 08:52:36;;;;;;;40.67;22.87;;;;;;;-1.29;87.36;101520.30;1787694;79;20990;-71
2021/12/12 08:55:00;;;;;;;41.37;21.52;;;;;;;-1.28;87.33;101512.39;1798012;79;21135;-72
2021/12/12 08:57:45;;;;;;;50.17;25.90;;;;;;;-1.30;87.35;101519.92;1780889;79;21054;-72
2021/12/12 09:00:08;;;;;;;51.53;26.42;;;;;;;-1.29;87.32;101517.67;1735851;82;21144;-72
2021/12/12 09:02:33;;;;;;;71.70;32.63;;;;;;;-1.26;87.32;101521.46;1741372;81;21530;-72
2021/12/12 09:05:13;;;;;;;90.85;39.18;;;;;;;-1.20;87.30;101522.52;1737479;81;21598;-71
2021/12/12 09:07:41;;;;;;;82.90;37.25;;;;;;;-1.14;87.24;101514.39;1740940;81;21085;-71
2021/12/12 09:10:26;;;;;;;99.30;39.23;;;;;;;-1.13;87.25;101512.17;1747357;81;21137;-71
2021/12/12 09:13:02;;;;;;;61.60;31.35;;;;;;;-1.07;87.25;101510.58;1706892;84;21032;-72
2021/12/12 09:15:51;;;;;;;68.02;29.20;;;;;;;-1.03;87.22;101513.45;1707603;84;21107;-72
2021/12/12 09:18:28;;;;;;;63.15;29.32;;;;;;;-0.95;87.19;101502.16;1707635;84;21029;-72
2021/12/12 09:21:23;;;;;;;60.88;29.25;;;;;;;-0.87;87.16;101502.67;1743972;81;21240;-71
2021/12/12 09:23:49;;;;;;;46.75;24.47;;;;;;;-0.77;87.15;101500.02;1783994;80;21049;-71
2021/12/12 09:26:21;;;;;;;35.45;19.62;;;;;;;-0.69;87.13;101493.97;1784717;80;21526;-72
2021/12/12 09:28:55;;;;;;;41.25;22.00;;;;;;;-0.71;87.08;101493.20;1784430;80;21061;-71
2021/12/12 09:31:30;;;;;;;46.60;24.77;;;;;;;-0.72;87.09;101486.25;1779740;80;21038;-72
2021/12/12 09:34:01;;;;;;;46.25;23.60;;;;;;;-0.67;87.08;101489.49;1736651;82;21111;-72
2021/12/12 09:36:43;;;;;;;43.87;22.90;;;;;;;-0.64;87.09;101481.52;1722297;81;21054;-72
2021/12/12 09:39:17;;;;;;;42.88;23.02;;;;;;;-0.56;87.06;101483.30;1707592;83;21024;-72
2021/12/12 09:42:27;;;;;;;40.05;22.90;;;;;;;-0.51;87.07;101485.25;1743682;80;20983;-72
2021/12/12 09:45:39;;;;;;;47.08;24.98;;;;;;;-0.52;87.04;101493.16;1776271;80;21093;-72
2021/12/12 09:51:14;;;;;;;54.95;29.95;;;;;;;-0.45;87.03;101489.78;1776461;80;21172;-72
2021/12/12 09:51:31;;;;;;;49.55;27.10;;;;;;;-0.42;86.99;101489.17;1765732;80;20998;-72
2021/12/12 09:54:22;;;;;;;52.95;29.67;;;;;;;-0.36;86.97;101486.75;1760001;80;21069;-72
2021/12/12 09:57:35;;;;;;;46.55;27.22;;;;;;;-0.28;86.93;101491.16;1735172;81;20999;-72
2021/12/12 10:00:07;;;;;;;48.48;25.55;;;;;;;-0.17;86.89;101492.77;1766634;80;21085;-72
2021/12/12 10:02:40;;;;;;;47.95;26.07;;;;;;;-0.02;86.90;101489.41;1787816;80;21084;-72
2021/12/12 10:06:01;;;;;;;45.70;24.35;;;;;;;0.03;86.84;101490.05;1764816;80;21088;-72
2021/12/12 10:09:01;;;;;;;;;;;;;;;0.06;86.81;101485.10;1745200;81;21099;-71
2021/12/12 10:11:39;;;;;;;48.90;26.12;;;;;;;0.08;86.79;101489.80;1736586;82;20179;-72
2021/12/12 10:14:18;;;;;;;53.50;24.87;;;;;;;0.10;86.81;101477.02;1767458;81;21057;-72
2021/12/12 10:17:04;;;;;;;43.92;24.67;;;;;;;0.15;86.81;101477.61;1774767;80;21315;-72
2021/12/12 10:19:45;;;;;;;39.98;23.95;;;;;;;0.20;86.81;101467.75;1784568;80;21040;-72
2021/12/12 10:22:34;;;;;;;39.45;22.65;;;;;;;0.27;86.74;101459.95;1757178;81;21041;-72
2021/12/12 10:25:14;;;;;;;41.77;22.40;;;;;;;0.31;86.72;101465.89;1763639;80;20994;-72
2021/12/12 10:28:03;;;;;;;44.53;25.88;;;;;;;0.40;86.67;101461.47;1780079;79;21514;-72
2021/12/12 10:30:33;;;;;;;39.48;24.77;;;;;;;0.42;86.63;101450.45;1759336;80;21080;-72
2021/12/12 10:33:43;;;;;;;44.35;25.80;;;;;;;0.48;86.59;101455.38;1758881;81;21207;-72
2021/12/12 10:36:17;;;;;;;40.00;22.93;;;;;;;0.55;86.57;101463.77;1767984;80;20994;-72
2021/12/12 10:39:06;;;;;;;41.20;24.45;;;;;;;0.50;86.54;101458.30;1770375;80;21010;-72
2021/12/12 10:41:45;;;;;;;36.23;21.48;;;;;;;0.54;86.53;101469.94;1757362;81;21121;-72
2021/12/12 10:44:25;;;;;;;45.65;26.17;;;;;;;0.55;86.51;101465.94;1757272;81;21530;-72
2021/12/12 10:47:30;;;;;;;;;;;;;;;0.58;86.51;101468.86;1753938;81;21057;-72
2021/12/12 10:50:16;;;;;;;43.00;22.30;;;;;;;0.61;86.48;101466.06;1732291;81;20194;-72
2021/12/12 10:53:05;;;;;;;47.08;24.77;;;;;;;0.64;86.41;101465.44;1762763;81;21045;-72
2021/12/12 10:55:54;;;;;;;41.80;21.97;;;;;;;0.65;86.37;101461.05;1766249;80;21102;-72
2021/12/12 10:58:43;;;;;;;45.92;26.20;;;;;;;0.70;86.36;101451.16;1765543;80;21390;-73
2021/12/12 11:01:20;;;;;;;47.23;26.02;;;;;;;0.73;86.32;101449.69;1762695;80;21006;-72
2021/12/12 11:04:11;;;;;;;43.45;27.67;;;;;;;0.80;86.32;101453.68;1767852;80;21045;-72
2021/12/12 11:06:41;;;;;;;51.58;29.32;;;;;;;0.88;86.29;101451.01;1732602;82;21109;-73
2021/12/12 11:09:15;;;;;;;48.98;26.33;;;;;;;0.96;86.25;101449.28;1738813;81;21024;-72
2021/12/12 11:11:45;;;;;;;44.13;24.70;;;;;;;0.96;86.23;101451.91;1760721;81;21127;-72
2021/12/12 11:14:29;;;;;;;41.95;25.23;;;;;;;0.98;86.17;101454.01;1762963;81;21471;-72
2021/12/12 11:17:14;;;;;;;36.90;21.23;;;;;;;1.02;86.13;101451.61;1753953;81;21479;-72
2021/12/12 11:19:51;;;;;;;40.00;23.25;;;;;;;1.07;86.11;101448.24;1768260;80;21009;-72
2021/12/12 11:22:30;;;;;;;44.65;23.92;;;;;;;1.08;86.08;101449.95;1746618;81;21527;-72
2021/12/12 11:25:20;;;;;;;40.92;23.42;;;;;;;1.11;86.05;101447.61;1761492;80;21117;-72
2021/12/12 11:27:55;;;;;;;53.40;28.23;;;;;;;1.17;86.02;101440.23;1748948;80;20999;-72
2021/12/12 11:30:30;;;;;;;41.50;24.15;;;;;;;1.28;85.97;101440.95;1732172;82;21010;-73
2021/12/12 11:32:56;;;;;;;35.50;20.62;;;;;;;1.41;85.96;101437.55;1732336;82;21022;-73
2021/12/12 11:35:24;;;;;;;35.68;20.68;;;;;;;1.54;85.97;101439.50;1762552;80;21074;-73
2021/12/12 11:38:03;;;;;;;39.92;21.80;;;;;;;1.64;85.93;101430.16;1751145;80;21125;-73
2021/12/12 11:40:49;;;;;;;37.55;20.95;;;;;;;1.71;85.87;101434.13;1756378;81;21061;-73
2021/12/12 11:43:29;;;;;;;34.33;19.85;;;;;;;1.73;85.81;101430.93;1742609;80;21039;-73
2021/12/12 11:46:05;;;;;;;42.70;27.70;;;;;;;1.78;85.80;101434.16;1762618;80;21728;-71
2021/12/12 11:48:52;;;;;;;73.05;41.23;;;;;;;1.79;85.77;101434.55;1729985;80;21034;-73